Time;durP1;ratioP1;P1;durP2;ratioP2;P2;SDS_P1;SDS_P2;PMS_P1;PMS_P2;Temp;Humidity;BMP_temperature;BMP_pressure;BME280_temperature;BME280_humidity;BME280_pressure;Samples;Min_cycle;Max_cycle;Signal;HPM_P1;HPM_P2
2022/01/12 00:00:29;;;;;;;16.95;9.48;;;;;;;-9.00;80.22;99591.48;1788183;80;20895;-60
2022/01/12 00:02:56;;;;;;;17.87;10.03;;;;;;;-9.01;80.21;99591.59;1788345;80;21076;-59
2022/01/12 00:05:22;;;;;;;17.80;10.10;;;;;;;-9.03;80.30;99597.39;1788086;80;20912;-65
2022/01/12 00:07:51;;;;;;;16.93;9.15;;;;;;;-9.08;80.35;99597.78;1788113;80;20919;-60
2022/01/12 00:10:20;;;;;;;16.37;9.58;;;;;;;-9.09;80.43;99599.55;1788364;80;20955;-62
2022/01/12 00:12:46;;;;;;;15.72;9.43;;;;;;;-9.12;80.34;99601.12;1788247;80;21372;-64
2022/01/12 00:15:16;;;;;;;17.73;9.58;;;;;;;-9.17;80.43;99605.87;1788582;78;21117;-65
2022/01/12 00:17:43;;;;;;;16.50;9.15;;;;;;;-9.16;80.54;99604.10;1788404;80;20924;-62
2022/01/12 00:20:10;;;;;;;18.60;9.95;;;;;;;-9.17;80.43;99610.23;1788561;80;21010;-64
2022/01/12 00:22:39;;;;;;;18.70;10.20;;;;;;;-9.24;80.41;99610.39;1788554;80;21427;-62
2022/01/12 00:33:16;;;;;;;15.38;8.70;;;;;;;-9.36;80.67;99612.69;1788902;80;20908;-64
2022/01/12 00:35:46;;;;;;;13.48;8.43;;;;;;;-9.36;80.71;99608.80;1788722;80;20900;-59
2022/01/12 00:38:13;;;;;;;17.65;8.73;;;;;;;-9.36;80.65;99611.39;1788477;80;21562;-59
2022/01/12 00:40:42;;;;;;;16.35;8.58;;;;;;;-9.38;80.61;99621.08;1788549;80;21113;-59
2022/01/12 00:43:10;;;;;;;15.55;8.63;;;;;;;-9.43;80.39;99625.34;1789000;80;20947;-54
2022/01/12 00:45:41;;;;;;;20.85;10.55;;;;;;;-9.53;80.11;99622.30;1788977;80;20848;-61
2022/01/12 00:48:07;;;;;;;15.63;8.38;;;;;;;-9.65;79.93;99616.81;1788475;80;20900;-62
2022/01/12 00:50:34;;;;;;;15.35;8.75;;;;;;;-9.76;79.89;99621.11;1788456;80;20916;-64
2022/01/12 00:53:03;;;;;;;16.45;9.08;;;;;;;-9.79;80.00;99616.62;1788488;80;21114;-59
2022/01/12 00:55:31;;;;;;;15.85;9.33;;;;;;;-9.81;80.12;99627.13;1788336;80;20931;-61
2022/01/12 00:57:58;;;;;;;17.10;8.75;;;;;;;-9.82;80.23;99622.08;1788538;80;21373;-65
2022/01/12 01:00:26;;;;;;;16.35;8.68;;;;;;;-9.82;80.26;99625.47;1788716;80;20892;-64
2022/01/12 01:02:54;;;;;;;18.60;8.73;;;;;;;-9.85;80.30;99621.85;1788553;80;20972;-62
2022/01/12 01:05:23;;;;;;;15.32;9.28;;;;;;;-9.86;80.46;99621.48;1788787;80;21089;-58
2022/01/12 01:07:51;;;;;;;15.83;8.93;;;;;;;-9.83;80.51;99617.83;1788571;80;20983;-63
2022/01/12 01:11:04;;;;;;;13.50;8.45;;;;;;;-9.81;80.56;99621.12;1788901;80;20887;-62
2022/01/12 01:12:49;;;;;;;18.35;9.20;;;;;;;-9.82;80.64;99618.19;1763099;80;21455;-63
2022/01/12 01:15:19;;;;;;;17.73;9.18;;;;;;;-9.85;80.57;99618.43;1808694;79;20872;-58
2022/01/12 01:25:49;;;;;;;16.05;8.08;;;;;;;-9.95;80.58;99616.20;1811499;79;21388;-66
2022/01/12 01:28:17;;;;;;;17.50;8.90;;;;;;;-10.00;80.35;99613.16;1811361;79;20908;-60
2022/01/12 01:30:45;;;;;;;19.35;9.58;;;;;;;-10.03;80.32;99615.52;1811230;78;21033;-61
2022/01/12 01:33:15;;;;;;;22.35;11.75;;;;;;;-10.06;80.15;99615.78;1811123;79;20928;-63
2022/01/12 01:35:49;;;;;;;27.40;14.03;;;;;;;-10.10;80.05;99609.66;1811434;79;20947;-63
2022/01/12 01:38:14;;;;;;;14.98;9.13;;;;;;;-10.09;80.16;99614.72;1810995;79;20936;-64
2022/01/12 01:40:42;;;;;;;17.15;8.68;;;;;;;-10.06;80.13;99615.78;1811337;79;20979;-64
2022/01/12 01:44:08;;;;;;;19.35;8.58;;;;;;;-10.03;80.17;99618.60;1811531;79;21521;-61
2022/01/12 01:53:55;;;;;;;13.53;7.58;;;;;;;-10.10;80.26;99617.44;1811795;79;21400;-59
2022/01/12 01:56:23;;;;;;;13.18;7.47;;;;;;;-10.11;80.58;99616.61;1811492;79;21709;-63
2022/01/12 01:58:50;;;;;;;14.60;7.72;;;;;;;-10.06;80.71;99611.89;1811426;78;20971;-65
2022/01/12 02:01:19;;;;;;;14.13;8.05;;;;;;;-10.08;80.59;99612.45;1811957;79;21004;-55
2022/01/12 02:03:47;;;;;;;14.75;8.93;;;;;;;-10.12;80.53;99614.98;1811446;79;21372;-65
2022/01/12 02:06:15;;;;;;;15.13;8.25;;;;;;;-10.09;80.55;99612.13;1811229;78;20900;-66
2022/01/12 02:08:45;;;;;;;17.50;9.38;;;;;;;-10.04;80.54;99615.18;1760264;79;21045;-61
2022/01/12 02:11:27;;;;;;;25.55;13.88;;;;;;;-9.96;80.64;99615.38;1764594;79;20829;-65
2022/01/12 02:13:55;;;;;;;26.35;15.20;;;;;;;-9.93;80.44;99617.73;1811255;78;21470;-60
2022/01/12 02:16:30;;;;;;;32.98;17.15;;;;;;;-9.99;80.10;99618.70;1811281;79;20924;-61
2022/01/12 02:35:44;;;;;;;17.07;9.20;;;;;;;-10.74;79.21;99621.63;1811579;79;21125;-66
2022/01/12 02:40:40;;;;;;;33.35;17.98;;;;;;;-10.68;79.63;99630.21;1811477;78;21396;-61
2022/01/12 02:43:17;;;;;;;40.52;19.35;;;;;;;-10.67;79.50;99626.70;1811307;78;20869;-65
2022/01/12 02:51:27;;;;;;;48.33;22.85;;;;;;;-10.74;79.45;99617.25;1811635;79;20920;-61
2022/01/12 02:53:45;;;;;;;39.33;18.65;;;;;;;-10.78;79.38;99624.08;1782266;79;20952;-62
2022/01/12 02:56:20;;;;;;;21.23;11.90;;;;;;;-10.81;79.39;99621.25;1811710;78;20979;-62
2022/01/12 02:58:48;;;;;;;20.00;11.45;;;;;;;-10.74;79.67;99619.05;1811429;78;20917;-65
2022/01/12 03:04:00;;;;;;;41.60;20.40;;;;;;;-10.53;80.25;99627.27;1811335;78;21348;-66
2022/01/12 03:06:34;;;;;;;50.63;24.25;;;;;;;-10.43;80.23;99627.37;1811464;79;20908;-65
2022/01/12 03:09:00;;;;;;;49.33;25.30;;;;;;;-10.37;80.02;99626.09;1811265;78;21544;-61
2022/01/12 03:11:28;;;;;;;45.15;23.62;;;;;;;-10.37;79.79;99630.80;1811394;79;20919;-66
2022/01/12 03:13:57;;;;;;;51.85;25.62;;;;;;;-10.38;79.64;99626.55;1809515;79;21072;-61
2022/01/12 03:16:25;;;;;;;56.23;26.85;;;;;;;-10.40;79.50;99631.50;1788501;80;20900;-59
2022/01/12 03:18:55;;;;;;;52.63;27.03;;;;;;;-10.45;79.37;99629.27;1788563;80;20984;-55
2022/01/12 03:21:27;;;;;;;56.28;24.25;;;;;;;-10.52;79.28;99625.03;1789386;80;20928;-65
2022/01/12 03:23:53;;;;;;;53.05;26.20;;;;;;;-10.60;79.19;99623.99;1788471;79;21480;-59
2022/01/12 03:26:21;;;;;;;53.33;26.65;;;;;;;-10.68;79.16;99634.09;1788342;80;21061;-60
2022/01/12 03:28:53;;;;;;;45.15;22.15;;;;;;;-10.75;79.05;99634.21;1788547;80;20907;-60
2022/01/12 03:31:20;;;;;;;32.85;15.48;;;;;;;-10.85;78.94;99642.31;1787893;80;20923;-65
2022/01/12 04:10:19;;;;;;;;;;;;;;;-11.14;80.95;99630.75;1791182;80;21379;-59
2022/01/12 04:12:46;;;;;;;13.20;7.45;;;;;;;-11.11;81.08;99626.65;1788496;80;20085;-62
2022/01/12 04:15:14;;;;;;;14.45;7.87;;;;;;;-11.11;81.09;99627.45;1788424;78;21883;-59
2022/01/12 04:17:40;;;;;;;14.45;7.62;;;;;;;-11.09;81.21;99620.39;1788314;80;20948;-60
2022/01/12 04:20:09;;;;;;;15.65;7.62;;;;;;;-11.02;81.28;99624.66;1788546;80;20853;-63
2022/01/12 04:25:23;;;;;;;13.60;6.20;;;;;;;-10.98;81.40;99620.89;1788871;80;20995;-64
2022/01/12 04:27:50;;;;;;;11.53;6.78;;;;;;;-10.95;81.58;99628.44;1788281;80;21117;-60
2022/01/12 04:30:16;;;;;;;12.37;7.62;;;;;;;-10.92;81.66;99620.41;1788221;80;20868;-58
2022/01/12 04:32:44;;;;;;;11.35;7.20;;;;;;;-10.91;81.56;99624.66;1788117;80;21462;-65
2022/01/12 04:35:13;;;;;;;12.43;7.00;;;;;;;-10.86;81.42;99621.27;1788159;80;20935;-65
2022/01/12 04:37:40;;;;;;;12.55;6.97;;;;;;;-10.86;81.42;99621.27;1789580;80;20876;-55
2022/01/12 04:40:09;;;;;;;11.12;6.58;;;;;;;-10.84;81.52;99632.33;1788712;80;21086;-64
2022/01/12 04:42:36;;;;;;;14.20;7.03;;;;;;;-10.85;81.34;99631.49;1788205;80;20872;-66
2022/01/12 04:45:17;;;;;;;12.63;6.62;;;;;;;-10.87;81.31;99629.50;1788445;80;20996;-60
2022/01/12 04:47:59;;;;;;;12.33;6.75;;;;;;;-10.86;81.43;99626.44;1785758;80;20925;-66
2022/01/12 04:50:14;;;;;;;11.65;6.33;;;;;;;-10.84;81.51;99632.33;1785416;80;20912;-60
2022/01/12 04:52:41;;;;;;;11.70;6.85;;;;;;;-10.83;81.53;99632.69;1788126;80;21136;-62
2022/01/12 04:55:09;;;;;;;10.70;6.72;;;;;;;-10.85;81.54;99632.78;1788174;80;20868;-60
2022/01/12 04:57:36;;;;;;;14.45;7.20;;;;;;;-10.85;81.60;99634.55;1788253;80;20900;-59
2022/01/12 05:00:15;;;;;;;14.00;6.55;;;;;;;-10.85;81.51;99639.72;1788698;80;20959;-62
2022/01/12 05:13:32;;;;;;;13.05;7.08;;;;;;;-10.98;80.87;99626.06;1788365;80;20950;-66
2022/01/12 05:16:04;;;;;;;12.70;6.25;;;;;;;-11.05;80.74;99629.59;1788316;80;21444;-65
2022/01/12 05:18:29;;;;;;;12.37;7.10;;;;;;;-11.09;80.81;99632.03;1787510;80;21921;-64
2022/01/12 05:20:56;;;;;;;13.43;7.17;;;;;;;-11.08;80.90;99622.52;1788465;80;20892;-65
2022/01/12 05:23:23;;;;;;;13.45;7.37;;;;;;;-11.05;80.99;99626.17;1788694;80;20888;-61
2022/01/12 05:25:52;;;;;;;13.30;6.90;;;;;;;-11.04;80.95;99623.95;1788392;80;20928;-61
2022/01/12 05:28:20;;;;;;;11.05;6.60;;;;;;;-11.03;80.98;99629.00;1788719;80;20872;-60
2022/01/12 05:30:49;;;;;;;17.45;7.47;;;;;;;-11.01;80.98;99624.53;1788526;80;21096;-60
2022/01/12 05:33:17;;;;;;;10.85;6.65;;;;;;;-11.00;80.81;99630.54;1788513;80;20903;-60
2022/01/12 05:35:44;;;;;;;12.85;7.08;;;;;;;-11.02;80.52;99629.84;1788406;80;21398;-61
2022/01/12 05:38:14;;;;;;;12.60;7.45;;;;;;;-11.08;80.32;99625.10;1788480;80;20900;-60
2022/01/12 05:40:42;;;;;;;10.98;6.25;;;;;;;-11.13;80.14;99625.91;1788268;80;21010;-65
2022/01/12 05:43:11;;;;;;;11.97;6.37;;;;;;;-11.18;80.11;99625.80;1788519;80;21786;-62
2022/01/12 05:45:40;;;;;;;11.90;6.37;;;;;;;-11.21;80.13;99623.42;1788325;80;20900;-64
2022/01/12 05:50:39;;;;;;;10.43;6.03;;;;;;;-11.20;80.02;99628.97;1788484;80;20988;-66
2022/01/12 05:53:08;;;;;;;10.68;6.47;;;;;;;-11.22;80.02;99625.67;1786118;80;20873;-63
2022/01/12 05:55:35;;;;;;;12.25;6.87;;;;;;;-11.21;80.15;99631.19;1789664;80;21111;-55
2022/01/12 05:58:02;;;;;;;12.73;6.60;;;;;;;-11.17;80.18;99636.97;1789270;80;20872;-63
2022/01/12 06:00:30;;;;;;;10.48;6.85;;;;;;;-11.16;80.13;99637.31;1788475;80;20987;-66
2022/01/12 06:02:58;;;;;;;11.78;7.08;;;;;;;-11.13;80.09;99642.27;1788465;80;20928;-61
2022/01/12 06:05:27;;;;;;;12.15;6.85;;;;;;;-11.07;80.00;99636.66;1788689;80;20880;-62
2022/01/12 06:07:54;;;;;;;11.40;6.58;;;;;;;-11.04;79.78;99635.59;1788390;80;21117;-65
2022/01/12 06:10:23;;;;;;;17.20;8.33;;;;;;;-11.05;79.62;99633.94;1788397;80;20979;-62
2022/01/12 06:12:51;;;;;;;19.27;10.80;;;;;;;-11.09;79.39;99633.33;1788431;80;21014;-59
2022/01/12 06:15:20;;;;;;;16.48;7.37;;;;;;;-11.11;79.14;99640.38;1788193;80;20932;-65
2022/01/12 06:17:48;;;;;;;14.38;6.85;;;;;;;-11.20;78.89;99632.02;1788625;80;21400;-62
2022/01/12 06:20:15;;;;;;;12.75;6.55;;;;;;;-11.34;78.55;99634.80;1788579;80;21900;-62
2022/01/12 06:22:44;;;;;;;13.25;7.25;;;;;;;-11.42;78.50;99634.55;1777352;80;20881;-59
2022/01/12 06:25:14;;;;;;;13.20;7.90;;;;;;;-11.45;78.44;99638.19;1788426;80;20929;-65
2022/01/12 06:27:50;;;;;;;15.88;8.10;;;;;;;-11.45;78.43;99645.12;1788269;80;20928;-59
2022/01/12 06:32:57;;;;;;;20.65;12.18;;;;;;;-11.44;78.45;99647.58;1788457;80;21142;-60
2022/01/12 06:35:28;;;;;;;30.97;14.55;;;;;;;-11.11;79.11;99645.56;1788403;80;20920;-66
2022/01/12 06:37:55;;;;;;;31.95;15.28;;;;;;;-11.11;79.11;99645.56;1788325;80;20910;-60
2022/01/12 06:40:22;;;;;;;35.48;17.27;;;;;;;-10.91;78.65;99650.09;1788414;80;21460;-66
2022/01/12 06:42:49;;;;;;;47.13;22.67;;;;;;;-10.76;78.37;99653.30;1788473;80;21430;-62
2022/01/12 06:45:16;;;;;;;47.85;23.00;;;;;;;-10.64;78.24;99651.04;1766562;80;21076;-62
2022/01/12 06:47:45;;;;;;;47.70;24.47;;;;;;;-10.59;78.01;99655.41;1788265;80;20920;-61
2022/01/12 06:50:12;;;;;;;54.55;26.60;;;;;;;-10.51;77.81;99651.77;1788743;80;21434;-62
2022/01/12 06:52:39;;;;;;;44.48;19.67;;;;;;;-10.46;77.48;99657.42;1788515;80;21253;-67
2022/01/12 06:55:08;;;;;;;20.60;11.40;;;;;;;-10.49;77.19;99647.29;1788652;80;21459;-64
2022/01/12 06:57:36;;;;;;;18.20;10.03;;;;;;;-10.53;77.17;99648.48;1794194;78;21115;-64
2022/01/12 07:00:05;;;;;;;17.75;8.78;;;;;;;-10.51;77.37;99651.77;1808816;78;20932;-65
2022/01/12 07:02:31;;;;;;;14.53;7.72;;;;;;;-10.46;77.45;99654.83;1717629;81;21495;-63
2022/01/12 07:04:58;;;;;;;13.45;7.87;;;;;;;-10.35;77.54;99650.11;1759807;80;21022;-59
2022/01/12 07:07:26;;;;;;;15.98;9.05;;;;;;;-10.27;77.48;99655.06;1749498;80;20889;-60
2022/01/12 07:09:55;;;;;;;20.92;11.70;;;;;;;-10.16;77.49;99656.81;1743574;82;21234;-60
2022/01/12 07:12:23;;;;;;;24.90;11.93;;;;;;;-10.06;77.37;99655.95;1750737;80;21023;-58
2022/01/12 07:14:52;;;;;;;15.08;7.58;;;;;;;-9.96;77.27;99656.86;1791410;78;20944;-66
2022/01/12 07:17:18;;;;;;;16.17;8.50;;;;;;;-9.86;77.16;99664.73;1806529;77;21412;-62
2022/01/12 07:19:45;;;;;;;13.48;8.15;;;;;;;-9.84;77.06;99668.86;1799311;78;20916;-62
2022/01/12 07:22:12;;;;;;;13.05;6.95;;;;;;;-9.73;77.03;99674.97;1819099;78;21113;-61
2022/01/12 07:24:38;;;;;;;14.95;8.83;;;;;;;-9.68;76.92;99675.44;1750677;81;20877;-61
2022/01/12 07:27:05;;;;;;;12.98;7.85;;;;;;;-9.62;76.93;99682.71;1718713;82;20939;-68
2022/01/12 07:29:34;;;;;;;14.75;8.38;;;;;;;-9.53;76.85;99683.27;1711748;83;20962;-60
2022/01/12 07:32:01;;;;;;;10.82;6.75;;;;;;;-9.45;76.72;99681.73;1743841;80;21022;-62
2022/01/12 07:34:29;;;;;;;13.13;7.37;;;;;;;-9.39;76.49;99672.61;1746349;80;21384;-63
2022/01/12 07:36:56;;;;;;;12.82;7.58;;;;;;;-9.32;76.32;99675.05;1776752;80;21333;-61
2022/01/12 07:39:23;;;;;;;14.85;8.45;;;;;;;-9.26;76.17;99677.17;1746992;80;20940;-64
2022/01/12 07:41:52;;;;;;;13.50;8.10;;;;;;;-9.22;76.00;99683.75;1724002;81;20944;-65
2022/01/12 07:44:21;;;;;;;13.62;7.75;;;;;;;-9.14;75.76;99676.17;1749209;80;21543;-66
2022/01/12 07:46:48;;;;;;;15.03;7.62;;;;;;;-9.12;75.56;99678.17;1746413;80;21169;-60
2022/01/12 07:49:15;;;;;;;12.45;7.35;;;;;;;-9.11;75.60;99670.71;1734512;80;20987;-63
2022/01/12 07:51:41;;;;;;;15.28;8.68;;;;;;;-9.06;75.63;99668.56;1737855;80;20956;-59
2022/01/12 07:54:08;;;;;;;18.23;7.78;;;;;;;-8.95;75.36;99676.31;1740167;80;21077;-60
2022/01/12 07:56:36;;;;;;;13.25;7.70;;;;;;;-8.89;75.27;99677.09;1737245;80;20912;-57
2022/01/12 07:59:02;;;;;;;12.70;7.30;;;;;;;-8.80;75.21;99683.30;1765933;80;21530;-58
2022/01/12 08:01:31;;;;;;;11.93;6.55;;;;;;;-8.61;74.93;99679.52;1781932;80;21023;-63
2022/01/12 08:03:58;;;;;;;11.20;6.28;;;;;;;-8.47;74.55;99676.11;1782710;80;20936;-67
2022/01/12 08:06:26;;;;;;;14.15;6.65;;;;;;;-8.41;74.36;99680.77;1764967;80;20928;-67
2022/01/12 08:08:53;;;;;;;10.55;6.62;;;;;;;-8.37;74.04;99679.58;1758632;80;20940;-61
2022/01/12 08:11:20;;;;;;;12.33;6.62;;;;;;;-8.25;73.74;99682.05;1754941;80;21054;-60
2022/01/12 08:13:46;;;;;;;15.98;7.75;;;;;;;-8.11;73.18;99683.00;1781905;80;21111;-61
2022/01/12 08:16:20;;;;;;;13.38;7.45;;;;;;;-8.04;73.09;99688.84;1761737;80;21043;-60
2022/01/12 08:18:47;;;;;;;11.40;7.37;;;;;;;-8.01;72.56;99682.09;1766997;80;21062;-61
2022/01/12 08:21:13;;;;;;;16.37;7.75;;;;;;;-8.01;72.40;99686.47;1756294;81;21117;-61
2022/01/12 08:23:40;;;;;;;13.15;7.00;;;;;;;-7.99;72.56;99685.85;1756160;81;21825;-62
2022/01/12 08:26:07;;;;;;;10.60;6.53;;;;;;;-7.86;72.24;99687.72;1756461;81;20880;-68
2022/01/12 08:28:35;;;;;;;10.55;6.12;;;;;;;-7.80;71.99;99684.61;1755176;80;21499;-71
2022/01/12 08:31:01;;;;;;;11.45;6.42;;;;;;;-7.72;71.66;99682.97;1764618;80;21032;-65
2022/01/12 08:33:29;;;;;;;12.28;6.12;;;;;;;-7.70;71.21;99677.66;1768413;80;20882;-67
2022/01/12 08:35:55;;;;;;;12.15;6.40;;;;;;;-7.69;70.92;99679.28;1788502;80;21134;-69
2022/01/12 08:38:24;;;;;;;8.53;5.67;;;;;;;-7.65;70.77;99687.16;1783500;80;20979;-69
2022/01/12 08:40:52;;;;;;;10.60;5.78;;;;;;;-7.52;70.67;99691.65;1745542;80;21047;-63
2022/01/12 08:43:19;;;;;;;13.35;6.28;;;;;;;-7.46;70.45;99688.49;1727337;83;20948;-65
2022/01/12 08:45:45;;;;;;;8.90;5.97;;;;;;;-7.40;70.07;99693.17;1727278;83;20872;-68
2022/01/12 08:48:12;;;;;;;10.43;5.37;;;;;;;-7.31;69.67;99691.05;1727265;83;21135;-69
2022/01/12 08:50:39;;;;;;;10.53;6.08;;;;;;;-7.25;69.52;99697.00;1727372;83;20888;-70
2022/01/12 08:53:06;;;;;;;12.78;6.75;;;;;;;-7.23;69.13;99692.48;1727149;83;20943;-65
2022/01/12 08:55:33;;;;;;;12.73;6.50;;;;;;;-7.25;68.55;99698.30;1751541;80;21533;-66
2022/01/12 08:58:00;;;;;;;11.73;6.87;;;;;;;-7.27;68.44;99691.11;1755383;80;20932;-65
2022/01/12 09:00:27;;;;;;;10.82;6.12;;;;;;;-7.34;67.97;99687.41;1762196;80;21124;-62
2022/01/12 09:02:53;;;;;;;11.68;6.72;;;;;;;-7.39;68.39;99689.59;1767342;80;21459;-70
2022/01/12 09:05:20;;;;;;;9.35;6.28;;;;;;;-7.33;68.36;99693.45;1734152;80;20964;-67
2022/01/12 09:07:47;;;;;;;11.80;6.50;;;;;;;-7.33;67.86;99683.86;1742478;80;21352;-67
2022/01/12 09:10:15;;;;;;;11.97;5.95;;;;;;;-7.33;68.08;99682.56;1733332;80;21499;-67
2022/01/12 09:12:43;;;;;;;9.75;6.20;;;;;;;-7.24;68.06;99685.64;1727371;83;20955;-72
2022/01/12 09:15:13;;;;;;;12.00;6.53;;;;;;;-7.22;67.94;99683.72;1758907;80;21456;-67
2022/01/12 09:17:41;;;;;;;10.10;6.78;;;;;;;-7.19;67.74;99686.06;1754985;80;20984;-62
2022/01/12 09:20:09;;;;;;;12.15;6.85;;;;;;;-7.12;67.75;99679.34;1737732;80;20919;-65
2022/01/12 09:22:37;;;;;;;11.08;6.58;;;;;;;-7.03;67.73;99668.56;1740009;80;21427;-61
2022/01/12 09:25:06;;;;;;;11.43;6.60;;;;;;;-7.00;67.29;99671.73;1732043;80;21196;-65
2022/01/12 09:27:33;;;;;;;11.95;6.30;;;;;;;-6.94;67.74;99669.03;1736191;80;21443;-64
2022/01/12 09:30:00;;;;;;;11.48;6.83;;;;;;;-6.83;67.75;99668.08;1743996;80;21138;-62
2022/01/12 09:32:27;;;;;;;11.70;7.12;;;;;;;-6.67;67.61;99672.22;1756510;80;20893;-62
2022/01/12 09:34:53;;;;;;;13.83;8.03;;;;;;;-6.48;66.72;99666.96;1733255;82;20904;-62
2022/01/12 09:37:21;;;;;;;11.75;7.08;;;;;;;-6.44;66.03;99668.31;1752386;81;21124;-67
2022/01/12 09:39:48;;;;;;;12.53;7.40;;;;;;;-6.44;66.25;99660.48;1751271;80;20948;-64
2022/01/12 09:42:16;;;;;;;11.15;7.20;;;;;;;-6.42;65.86;99657.25;1747751;80;21376;-68
2022/01/12 09:44:46;;;;;;;13.25;7.72;;;;;;;-6.46;65.76;99653.30;1768731;80;20888;-69
2022/01/12 09:47:12;;;;;;;13.30;7.90;;;;;;;-6.51;65.83;99656.33;1727184;82;21571;-61
2022/01/12 09:49:41;;;;;;;11.65;7.70;;;;;;;-6.47;65.87;99655.55;1750777;80;21089;-67
2022/01/12 09:52:08;;;;;;;11.10;7.35;;;;;;;-6.44;65.85;99653.97;1721639;81;21026;-63
2022/01/12 09:54:36;;;;;;;10.72;7.35;;;;;;;-6.43;66.01;99661.64;1736340;81;21547;-70
2022/01/12 09:57:04;;;;;;;13.45;7.22;;;;;;;-6.27;66.07;99657.14;1733648;80;21597;-63
2022/01/12 09:59:31;;;;;;;13.43;7.30;;;;;;;-6.12;65.72;99643.16;1759005;80;21549;-61
2022/01/12 10:01:58;;;;;;;17.95;8.25;;;;;;;-6.04;65.74;99650.58;1780075;80;21052;-70
2022/01/12 10:04:30;;;;;;;11.45;7.30;;;;;;;-5.89;65.81;99656.97;1723235;80;20959;-63
2022/01/12 10:07:02;;;;;;;12.73;7.80;;;;;;;-5.75;65.29;99648.61;1735582;80;21498;-60
2022/01/12 10:09:44;;;;;;;13.70;8.58;;;;;;;-5.77;64.88;99644.00;1741749;80;21003;-67
2022/01/12 10:12:15;;;;;;;16.25;8.13;;;;;;;-5.72;65.02;99644.86;1752096;80;21543;-64
2022/01/12 10:14:52;;;;;;;13.03;7.78;;;;;;;-5.65;65.03;99639.39;1766093;80;21128;-65
2022/01/12 10:17:22;;;;;;;13.75;8.65;;;;;;;-5.51;64.98;99635.47;1747094;80;21478;-62
2022/01/12 10:19:49;;;;;;;14.55;8.45;;;;;;;-5.43;64.47;99630.30;1698301;83;20960;-60
2022/01/12 10:22:16;;;;;;;15.75;9.43;;;;;;;-5.38;64.34;99625.46;1709352;83;20948;-66
2022/01/12 10:24:45;;;;;;;13.90;8.88;;;;;;;-5.35;64.12;99623.86;1709655;83;20984;-65
2022/01/12 10:27:19;;;;;;;12.90;9.13;;;;;;;-5.38;63.32;99621.06;1718548;82;21121;-68
2022/01/12 10:29:47;;;;;;;12.45;8.28;;;;;;;-5.42;63.02;99626.73;1701456;83;21089;-67
2022/01/12 10:32:17;;;;;;;14.33;9.45;;;;;;;-5.56;63.32;99624.16;1668219;84;21539;-67
2022/01/12 10:34:46;;;;;;;14.75;8.88;;;;;;;-5.72;63.46;99624.80;1698057;84;20908;-69
2022/01/12 10:37:16;;;;;;;14.70;9.05;;;;;;;-5.86;63.91;99623.20;1698908;82;21011;-64
2022/01/12 10:39:51;;;;;;;16.00;10.35;;;;;;;-5.90;64.10;99616.65;1720739;82;21845;-68
2022/01/12 10:42:23;;;;;;;19.32;11.10;;;;;;;-5.94;64.24;99615.31;1756135;81;21097;-69
2022/01/12 10:44:55;;;;;;;18.20;9.93;;;;;;;-5.94;64.50;99605.70;1743859;80;20896;-66
2022/01/12 10:47:27;;;;;;;15.30;9.80;;;;;;;-5.98;64.70;99609.55;1729179;83;21118;-68
2022/01/12 10:49:59;;;;;;;17.42;10.53;;;;;;;-5.96;64.95;99605.03;1740513;81;20999;-60
2022/01/12 10:52:37;;;;;;;17.35;10.58;;;;;;;-5.91;65.12;99605.38;1744808;80;21131;-65
2022/01/12 10:55:11;;;;;;;17.32;10.95;;;;;;;-5.84;65.12;99613.47;1729040;83;21122;-68
2022/01/12 10:57:41;;;;;;;20.45;11.80;;;;;;;-5.82;65.20;99611.02;1729739;83;21447;-67
2022/01/12 11:00:21;;;;;;;22.27;11.53;;;;;;;-5.74;65.40;99608.47;1729847;83;20953;-69
2022/01/12 11:02:53;;;;;;;17.85;10.80;;;;;;;-5.66;64.70;99607.27;1753601;81;21012;-70
2022/01/12 11:05:22;;;;;;;22.42;13.62;;;;;;;-5.69;64.82;99604.94;1760377;81;21048;-65
2022/01/12 11:07:50;;;;;;;18.82;12.28;;;;;;;-5.71;65.30;99604.27;1760129;81;20949;-70
2022/01/12 11:10:20;;;;;;;18.27;12.60;;;;;;;-5.62;65.53;99609.08;1760813;81;20927;-64
2022/01/12 11:12:49;;;;;;;23.87;14.33;;;;;;;-5.59;65.51;99607.01;1760600;81;37758;-66
2022/01/12 11:15:18;;;;;;;21.65;13.55;;;;;;;-5.53;65.37;99604.27;1760396;81;20849;-67
2022/01/12 11:17:47;;;;;;;23.60;13.25;;;;;;;-5.57;65.15;99611.59;1788489;79;21092;-56
2022/01/12 11:20:35;;;;;;;23.38;14.58;;;;;;;-5.63;65.51;99607.45;1807314;79;20983;-66
2022/01/12 11:23:06;;;;;;;23.07;13.60;;;;;;;-5.59;65.83;99611.41;1805787;79;20877;-61
2022/01/12 11:25:41;;;;;;;25.75;18.77;;;;;;;-5.49;65.20;99604.80;1806686;78;20889;-63
2022/01/12 11:28:28;;;;;;;28.32;17.60;;;;;;;-5.47;65.47;99600.25;1807044;79;20915;-63
2022/01/12 11:31:01;;;;;;;22.93;13.28;;;;;;;-5.46;65.64;99594.86;1784311;79;21194;-68
2022/01/12 11:33:40;;;;;;;27.35;15.58;;;;;;;-5.47;65.26;99591.94;1806835;79;20933;-66
2022/01/12 11:36:16;;;;;;;30.55;18.40;;;;;;;-5.43;65.26;99590.66;1806671;78;20944;-63
2022/01/12 11:38:48;;;;;;;73.28;29.42;;;;;;;-5.34;65.24;99592.84;1784504;79;21051;-62
2022/01/12 11:41:23;;;;;;;60.85;23.45;;;;;;;-5.31;65.53;99588.15;1773926;81;21530;-68
2022/01/12 11:44:06;;;;;;;;;;;;;;;-5.23;65.61;99576.95;1776874;81;21263;-68
2022/01/12 11:46:52;;;;;;;21.00;11.83;;;;;;;-5.07;65.53;99567.92;1775075;81;20093;-71
2022/01/12 11:49:36;;;;;;;19.62;11.63;;;;;;;-5.05;64.64;99575.94;1775310;80;23407;-70
2022/01/12 11:52:29;;;;;;;20.30;13.25;;;;;;;-5.17;65.01;99582.38;1774451;80;20928;-63
2022/01/12 11:55:12;;;;;;;21.02;13.00;;;;;;;-5.17;64.96;99587.61;1774438;80;21058;-67
2022/01/12 11:57:42;;;;;;;20.40;12.40;;;;;;;-5.19;65.19;99595.26;1774595;81;21159;-67
2022/01/12 12:00:23;;;;;;;23.05;15.35;;;;;;;-5.20;65.28;99587.91;1775099;80;20822;-69
2022/01/12 12:02:51;;;;;;;29.95;16.77;;;;;;;-5.16;65.61;99581.91;1775043;80;20877;-69
2022/01/12 12:05:22;;;;;;;22.45;12.80;;;;;;;-5.14;65.58;99582.09;1774912;81;20900;-70
2022/01/12 12:08:03;;;;;;;22.55;13.10;;;;;;;-5.11;65.51;99582.27;1774236;80;20857;-63
2022/01/12 12:10:35;;;;;;;28.10;19.40;;;;;;;-5.07;65.41;99586.21;1774896;80;21531;-65
2022/01/12 12:13:02;;;;;;;24.70;15.93;;;;;;;-5.03;65.48;99588.84;1774854;80;21015;-63
2022/01/12 12:15:29;;;;;;;28.83;18.15;;;;;;;-5.02;65.68;99587.89;1774986;80;20885;-63
2022/01/12 12:18:00;;;;;;;23.00;13.62;;;;;;;-5.01;65.62;99587.72;1779425;80;21395;-68
2022/01/12 12:20:25;;;;;;;20.23;12.88;;;;;;;-5.05;65.48;99585.56;1783201;80;20888;-67
2022/01/12 12:22:52;;;;;;;40.50;24.32;;;;;;;-5.07;65.56;99593.57;1783454;80;21078;-69
2022/01/12 12:25:25;;;;;;;19.37;12.82;;;;;;;-5.14;65.82;99591.71;1783258;80;20865;-61
2022/01/12 12:28:01;;;;;;;25.75;16.15;;;;;;;-5.30;65.83;99583.24;1783345;80;20940;-58
2022/01/12 12:30:32;;;;;;;105.03;61.25;;;;;;;-5.30;66.28;99588.98;1824829;77;21462;-70
2022/01/12 12:33:12;;;;;;;32.55;18.42;;;;;;;-5.35;66.29;99583.38;1814161;79;21505;-68
2022/01/12 12:35:40;;;;;;;22.87;14.25;;;;;;;-5.49;66.55;99580.82;1814702;78;21737;-61
2022/01/12 12:38:10;;;;;;;21.90;14.45;;;;;;;-5.65;66.74;99579.34;1815168;79;21410;-69
2022/01/12 12:40:39;;;;;;;22.82;13.35;;;;;;;-5.91;67.11;99589.73;1814192;79;20908;-67
2022/01/12 12:43:13;;;;;;;20.57;13.08;;;;;;;-6.14;67.66;99589.80;1815486;78;20877;-57
2022/01/12 12:45:46;;;;;;;24.80;14.10;;;;;;;-6.32;68.25;99585.86;1816320;78;20969;-68
2022/01/12 12:48:22;;;;;;;24.45;14.20;;;;;;;-6.48;69.09;99585.67;1815377;79;21088;-66
2022/01/12 12:51:03;;;;;;;30.17;19.82;;;;;;;-6.57;69.48;99583.89;1814493;79;21412;-67
2022/01/12 12:53:35;;;;;;;26.50;16.00;;;;;;;-6.63;69.73;99584.95;1814506;79;20960;-64
2022/01/12 12:56:02;;;;;;;22.48;15.00;;;;;;;-6.68;70.18;99587.99;1814811;79;21010;-64
2022/01/12 12:58:29;;;;;;;23.57;14.35;;;;;;;-6.71;70.77;99596.09;1815241;78;20957;-61
2022/01/12 13:01:09;;;;;;;21.10;13.83;;;;;;;-6.71;71.24;99592.18;1815365;78;21067;-62
2022/01/12 13:03:37;;;;;;;21.10;13.85;;;;;;;-6.72;71.46;99586.64;1815221;78;20995;-63
2022/01/12 13:06:04;;;;;;;25.65;15.95;;;;;;;-6.65;71.66;99585.59;1815545;78;21447;-61
2022/01/12 13:08:30;;;;;;;25.08;15.88;;;;;;;-6.58;71.78;99588.79;1815322;79;20884;-63
2022/01/12 13:11:06;;;;;;;25.97;16.52;;;;;;;-6.52;72.00;99593.41;1815384;79;21379;-63
2022/01/12 13:13:34;;;;;;;27.05;16.23;;;;;;;-6.50;71.98;99590.69;1815442;78;21123;-66
2022/01/12 13:16:01;;;;;;;24.23;14.28;;;;;;;-6.46;72.14;99586.81;1815266;79;20884;-66